Scandinavia, Wisconsin
Current Conditions -  °F | °C
As of 2:35 PM on Tuesday 25 Nov 2014 (Local Time) from KPCZ Reporting Station
Scattered Clouds Scattered Clouds  
Wind Chill: 17°   Ceiling: Unl
Heat Index: 25°   Visibility: 10mi
Dew Point: 15°   Wind: 7mph
Humidity: 68%   Direction: 300°WNW
Pressure: 30.06"   Gusts: NA
Location:  44.46°N, 89.15°W
Report Text: KPCZ 252035Z AUTO 30006KT 10SM SCT019 M04/M09 A3006 RMK AO2 T10401092
Loading
Personal Weather Stations






























Interactive Weather Map New forecast layout! Learn more

10-Day Weather Forecast

Advertisements
Track Severe Weather on mobile